Rechercher aéroport 
image banner adimage banner adimage banner ad
image banner ad

CA93 - Crows Landing

Situé à Crows Landing, United States

ICAO - CA93, IATA -

Données fournies par Airmate  

Information générale

Coordonnées: N37°24'29" W121°6'34"
Élévation : 166 feet MSL.
Variation magnétique : 16° East
Voir autres Aéroports à California

Données opérationnelles

Special qualification required
Heure actuelle UTC:
Heure actuelle locale:
METAR: KMOD 300053Z 32011KT 10SM CLR 38/11 A2979 RMK AO2 SLP086 T03780111
TAF: KMOD 292350Z 3000/3024 31007KT P6SM FEW200 FM300900 35005KT P6SM FEW150 FM302100 32009KT P6SM SKC
Voir NOTAMs / SUP AIP / TFR affectant cet aéroport [VIEW]
Fréquences de communication: [VIEW]

Pistes:

Identifiant RWYQFULongueur (ft)Largeur (ft)SurfaceLDA (ft)
126975200CONC
306975200CONC
177950200CONC
357950200CONC

Coordonnées de l'aéroport

Adresse: Crows Landing United States

Vue satellite de CA93